Los datos mostrados corresponden al resumen diario obtenido de los registros semihorarios entre las 0:00 y las 24:00 h, en horario solar.
| Estación | Fecha | V Km/h | DV | Vx Km/h | T ºC | Tn ºC | Tx ºC | H frío | HR % | Rad MJ/m2 día | H sol | P mm | ETo mm |
|---|---|---|---|---|---|---|---|---|---|---|---|---|---|
| Almoradí | 02/09/2026 | 2.91 | NE | 14.08 | 26.96 | 22.75 | 32.34 | 0 | 80.7 | 19.37 | 10.9 | 0 | 4.06 |
| Elx | 02/09/2026 | 3.45 | N | 18.68 | 28.02 | 23.35 | 33.39 | 0 | 72.72 | 20.69 | 10.97 | 0 | 4.49 |
| Callosa d'En Sarrià | 02/09/2026 | 1.3 | N | 13.55 | 25.92 | 20.39 | 32.49 | 0 | 71.28 | 21.42 | 10.78 | 0 | 3.99 |
| Callosa d'En Sarrià (malla) | 02/09/2026 | 0.99 | E | 7.66 | 26.74 | 20.97 | 32.79 | 0 | 56.36 | 17.75 | 10.11 | 0 | 3.38 |
| Catral | 02/09/2026 | 2.57 | NE | 16.02 | 26.78 | 21.6 | 33.16 | 0 | 75.9 | 18.82 | 10.21 | 0 | 3.98 |
| Altea | 02/09/2026 | 3.69 | NE | 18.1 | 26.11 | 21.63 | 30.56 | 0 | 76 | 21.33 | 11.13 | 0 | 4.28 |
| Planes | 02/09/2026 | 2.07 | E | 11.68 | 25.19 | 17.63 | 34.55 | 0 | 78.5 | 22.53 | 10.81 | 0 | 4.4 |
| Villena | 02/09/2026 | 4.97 | S | 19.4 | 25.4 | 17.34 | 33.43 | 0 | 71.4 | 22.73 | 11.06 | 0 | 4.97 |
| Camp de Mirra | 02/09/2026 | 3.97 | N | 18.95 | 25.35 | 17.09 | 34.38 | 0 | 71.4 | 22.73 | 11.12 | 0 | 4.93 |
| Agost | 02/09/2026 | 3.02 | E | 15.56 | 25.55 | 19.61 | 31.71 | 0 | 71.3 | 20.29 | 10.89 | 0 | 4.13 |
| Orihuela - La Murada | 02/09/2026 | 3.66 | NE | 14.61 | 26.62 | 21.04 | 32.9 | 0 | 75.5 | 20.65 | 11.12 | 0 | 4.44 |
| Villajoyosa | 02/09/2026 | 2.76 | S | 15.31 | 26.5 | 21.83 | 31.68 | 0 | 70.2 | 21.7 | 11.12 | 0 | 4.35 |
| Ondara | 02/09/2026 | 3.22 | NE | 15.77 | 26.43 | 20.46 | 32.58 | 0 | 80.7 | 20.22 | 10.89 | 0 | 4.19 |
| Dénia | 02/09/2026 | 3.67 | O | 18.17 | 26.61 | 20.18 | 32.53 | 0 | 73.8 | 20.27 | 10.68 | 0 | 4.29 |
| Pinoso | 02/09/2026 | 5.35 | O | 22.33 | 25.19 | 18.44 | 32.56 | 0 | 69.36 | 23.01 | 11.07 | 0 | 4.98 |
| Monforte del Cid | 02/09/2026 | 4.08 | E | 16.93 | 25.94 | 19.63 | 31.73 | 0 | 73.75 | 21.34 | 11.2 | 0 | 4.44 |
| Crevillent | 02/09/2026 | 3.19 | E | 16.41 | 27.41 | 22.07 | 32.82 | 0 | 72.9 | 19.53 | 10.9 | 0 | 4.22 |
| Vall d'Uixó | 30/08/2026 | 3.25 | N | 12.1 | 25.07 | 18.28 | 32.32 | 0 | 58.58 | 24.3 | 11.12 | 0 | 4.78 |
| Vila-real EEA | 02/09/2026 | 5.46 | N | 16.89 | 26.54 | 22.3 | 31.61 | 0 | 76.96 | 16.15 | 9.78 | 0 | 3.8 |
| Onda | 02/09/2026 | 3.62 | N | 15.27 | 25.24 | 20.68 | 30.22 | 0 | 78.3 | 17.59 | 10 | 0 | 3.62 |
| Vila-Real | 02/09/2026 | 3.42 | SO | 16.16 | 25.77 | 21.66 | 30.37 | 0 | 81.1 | 18.87 | 9.97 | 0 | 3.8 |
| San Rafael del Río | 02/09/2026 | 3.62 | S | 17.89 | 24.53 | 18.75 | 31.06 | 0 | 79.9 | 20.88 | 11.11 | 0 | 4.1 |
| Castelló de la Plana | 02/09/2026 | 2.15 | O | 10.05 | 25.04 | 20.37 | 31.72 | 0 | 82.7 | 15.68 | 9.45 | 0 | 3.22 |
| Ribera de Cabanes | 02/09/2026 | 3.54 | O | 15.52 | 25.61 | 21.44 | 30.56 | 0 | 42.82 | 20 | 10.34 | 0 | 4.35 |
| Nules | 02/09/2026 | 3.43 | E | 14.82 | 25.33 | 20.12 | 30.29 | 0 | 81.1 | 16.75 | 10.14 | 0 | 3.45 |
| Segorbe | 02/09/2026 | 2.02 | SE | 12.14 | 24.55 | 17.37 | 33.42 | 0 | 75 | 21.46 | 10.49 | 0 | 4.13 |
| Pedralba | 02/09/2026 | 2.7 | SE | 15.52 | 25.61 | 19.64 | 32.63 | 0 | 66.74 | 21.11 | 10.98 | 0 | 4.24 |
| Benavites | 02/09/2026 | 2 | E | 12.77 | 23.97 | 18.37 | 29.3 | 0 | 88.1 | 20.22 | 10.35 | 0 | 3.7 |
| Moncada | 02/09/2026 | 5.3 | N | 20.53 | 25.61 | 19.7 | 30.27 | 0 | 78.81 | 21.58 | 10.84 | 0.2 | 4.34 |
| Carcaixent | 02/09/2026 | 3.68 | N | 17.32 | 26.88 | 19.48 | 33.65 | 0 | 69.29 | 22.01 | 10.75 | 0 | 4.64 |
| Carlet | 02/09/2026 | 3.73 | N | 14.63 | 26.21 | 20.08 | 31.84 | 0 | 70.07 | 20.9 | 11.01 | 0 | 4.32 |
| Llutxent | 02/09/2026 | 5.62 | N | 25.1 | 25.14 | 20.17 | 30.25 | 0 | 82.6 | 19.98 | 10.98 | 0 | 4.14 |
| Requena | 02/09/2026 | 4.78 | N | 21.1 | 25.88 | 17.37 | 37.41 | 0 | 64.45 | 23.71 | 11.27 | 0 | 5.65 |
| Algimia de Alfara | 02/09/2026 | 2.88 | E | 16.79 | 24.86 | 19.23 | 31.12 | 0 | 79.65 | 19.88 | 10.52 | 0 | 3.92 |
| Valencia - UPV | 02/09/2026 | 3.45 | E | 16.41 | 26.09 | 22.44 | 29.05 | 0 | 78.09 | 16.06 | 10.6 | 0 | 3.38 |
| Algemesí | 02/09/2026 | 3.29 | E | 16.69 | 25.61 | 20.6 | 30.9 | 0 | 83 | 19.51 | 10.84 | 0 | 3.89 |
| Picassent | 02/09/2026 | 2.52 | E | 13.9 | 25.04 | 19.4 | 30.43 | 0 | 82.4 | 21.15 | 11 | 0 | 4.01 |
| Montesa | 02/09/2026 | 2.35 | NE | 14.82 | 25.93 | 19.43 | 33.64 | 0 | 74.2 | 20.84 | 10.41 | 0 | 4.2 |
| Xàtiva | 02/09/2026 | 2.7 | N | 14.92 | 26.36 | 19.22 | 34.55 | 0 | 75.8 | 21.84 | 11.08 | 0 | 4.44 |
| Llíria | 02/09/2026 | 2.92 | SE | 16.37 | 25.18 | 18.28 | 31.35 | 0 | 74.2 | 21.17 | 10.94 | 0 | 4.14 |
| Sagunt | 02/09/2026 | 3.67 | NE | 15.95 | 26.16 | 21.62 | 30.43 | 0 | 73.9 | 20.52 | 10.58 | 0 | 4.14 |
| Campo Arcís | 02/09/2026 | 4.01 | E | 24.94 | 25.28 | 16.89 | 36.58 | 0 | 68.64 | 23.34 | 11.31 | 0 | 5.25 |
| Villalonga | 02/09/2026 | 2.62 | NE | 13.51 | 26.47 | 21.08 | 32.86 | 0 | 88.2 | 19.08 | 10.94 | 0 | 3.9 |
| Gandía | 02/09/2026 | 2.14 | NE | 15.07 | 25.97 | 20.14 | 31.29 | 0 | 80.4 | 18.61 | 10.98 | 0 | 3.71 |
| Bolbaite | 02/09/2026 | 3.17 | N | 13.65 | 25.14 | 18.32 | 32.24 | 0 | 77.6 | 20.17 | 10.78 | 0 | 4.1 |
| Bétera | 02/09/2026 | 4.68 | SE | 17.78 | 25.17 | 19.48 | 30.19 | 0 | 77.5 | 21.51 | 10.96 | 0 | 4.29 |
| Chulilla | 02/09/2026 | 4.27 | SE | 16.93 | 24.84 | 18.34 | 31.64 | 0 | 70 | 22.19 | 11.2 | 0 | 4.54 |
| Godelleta | 02/09/2026 | 2.72 | SE | 15.84 | 25.31 | 19.38 | 31.83 | 0 | 75.86 | 21.97 | 11.19 | 0 | 4.28 |
| Bèlgida | 02/09/2026 | 3.6 | E | 17.92 | 25.39 | 18.53 | 33.03 | 0 | 81.7 | 19.68 | 10.97 | 0 | 4.14 |
| Polinyà de Xúquer | 02/09/2026 | 2.94 | E | 15.17 | 25.85 | 20.74 | 30.4 | 0 | 80.6 | 21.54 | 11.03 | 0 | 4.17 |
| Benifaió | 02/09/2026 | 2.47 | E | 14.29 | 26 | 20.7 | 31.47 | 0 | 81.8 | 21.54 | 11.01 | 0 | 4.18 |
| Cheste | 02/09/2026 | 1.54 | SE | 12.35 | 24.77 | 17.31 | 32.68 | 0 | 70.8 | 22.14 | 11.11 | 0 | 4.09 |
| Tavernes de la Valldigna | 02/09/2026 | 3.36 | E | 17.29 | 26.07 | 21.39 | 30.01 | 0 | 85.6 | 19.9 | 10.58 | 0 | 3.91 |
| Castelló | 02/09/2026 | 3.7 | N | 18.77 | 26.28 | 19.74 | 33.25 | 0 | 79.1 | 15.71 | 8.78 | 0.2 | 3.61 |
© Copyright 2011, Instituto Valenciano de Investigaciones Agrarias.
Los datos meteorológicos ofrecidos es esta página son informativos, por lo que carecen de carácter oficial. Los datos son publicados automáticamente y, por lo tanto, pueden no estar sujetos a una completa validación.
|
Cargando ...espere por favor... |